KCBM/CBM METAR and TAF weather

Enter ICAO airport designator
Station Type Date Time Source
KCBM METAR 2019/06/24 22:56 UTC NOAA

KCBM 242256Z AUTO 24007KT 10SM CLR 31/20 A2990 RMK AO2 SLP125 T03050198


Station Type Date Time Source
KCBM Decoded METAR 2019/06/24 22:56 UTC NOAA

Columbus Air Force Base, MS, United States (KCBM) 33-39N 088-27W
Jun 24, 2019 - 06:56 PM EDT / 2019.06.24 2256 UTC
Wind: from the WSW (240 degrees) at 8 MPH (7 KT):0
Visibility: 10 mile(s):0
Sky conditions: clear
Temperature: 86.9 F (30.5 C)
Dew Point: 67.6 F (19.8 C)
Relative Humidity: 52%
Pressure (altimeter): 29.9 in. Hg (1012 hPa)
ob: KCBM 242256Z AUTO 24007KT 10SM CLR 31/20 A2990 RMK AO2 SLP125 T03050198
cycle: 23

Station Type Date Time Source
KCBM TAF 2019/06/24 19:37 UTC NOAA

TAF
AMD KCBM 241923Z 2419/2523 28012KT 9999 SCT020 BKN090 QNH2988INS
BECMG 2500/2501 VRB06KT 9999 FEW025 SCT250 QNH2992INS
BECMG 2517/2518 25009KT 9999 SCT035 QNH3003INS
BECMG 2520/2521 25009KT 9999 VCTS BKN030CB QNH3007INS TX31/2421Z TN21/2511Z

Example: see airport list